Time;durP1;ratioP1;P1;durP2;ratioP2;P2;SDS_P1;SDS_P2;PMS_P1;PMS_P2;Temp;Humidity;BMP_temperature;BMP_pressure;BME280_temperature;BME280_humidity;BME280_pressure;Samples;Min_cycle;Max_cycle;Signal;HPM_P1;HPM_P2
2021/10/21 00:00:50;;;;;;;2.28;1.80;;;;;;;14.76;80.41;97270.50;2624775;39;20399;-67
2021/10/21 00:03:19;;;;;;;2.92;2.13;;;;;;;14.75;80.47;97260.94;2624140;54;20114;-68
2021/10/21 00:05:52;;;;;;;2.22;1.85;;;;;;;14.77;79.86;97256.16;2623476;54;20038;-68
2021/10/21 00:08:21;;;;;;;4.65;2.55;;;;;;;14.74;80.64;97262.78;2623838;54;20034;-69
2021/10/21 00:10:51;;;;;;;2.83;2.53;;;;;;;14.77;80.54;97259.59;2623076;54;20037;-68
2021/10/21 00:13:21;;;;;;;3.33;2.10;;;;;;;14.76;80.59;97226.09;2623382;54;20045;-67
2021/10/21 00:15:50;;;;;;;2.40;2.20;;;;;;;14.74;80.54;97230.09;2623510;54;20018;-68
2021/10/21 00:18:20;;;;;;;3.60;2.05;;;;;;;14.78;80.19;97220.53;2623745;54;20019;-68
2021/10/21 00:20:52;;;;;;;3.00;2.30;;;;;;;14.80;80.48;97226.38;2624257;54;20026;-68
2021/10/21 00:23:22;;;;;;;4.82;3.17;;;;;;;14.80;80.69;97189.13;2623512;54;20036;-68
2021/10/21 00:25:52;;;;;;;2.10;1.95;;;;;;;14.79;80.18;97192.88;2623170;54;20027;-68
2021/10/21 00:28:22;;;;;;;3.05;2.35;;;;;;;14.80;80.05;97170.50;2623061;54;20037;-68
2021/10/21 00:30:51;;;;;;;5.05;2.65;;;;;;;14.83;79.99;97180.66;2624050;54;20035;-67
2021/10/21 00:33:21;;;;;;;3.67;2.88;;;;;;;14.88;79.75;97145.28;2624467;39;20418;-68
2021/10/21 00:35:53;;;;;;;2.38;2.15;;;;;;;14.85;80.00;97115.47;2624358;54;20050;-67
2021/10/21 00:38:22;;;;;;;2.75;2.22;;;;;;;14.90;80.03;97096.09;2624132;54;20533;-67
2021/10/21 00:40:52;;;;;;;2.50;2.20;;;;;;;14.92;80.00;97077.97;2624285;54;20082;-67
2021/10/21 00:43:27;;;;;;;2.28;2.03;;;;;;;14.92;79.73;97090.50;2624898;54;20034;-68
2021/10/21 00:45:56;;;;;;;2.72;2.30;;;;;;;14.94;79.41;97117.63;2627840;54;20025;-68
2021/10/21 00:48:26;;;;;;;2.47;2.28;;;;;;;14.96;79.86;97115.50;2628265;47;20556;-68
2021/10/21 00:50:59;;;;;;;6.13;2.22;;;;;;;14.99;79.56;97121.09;2628272;54;20034;-68
2021/10/21 00:53:31;;;;;;;4.70;2.58;;;;;;;15.00;79.44;97050.84;2628271;54;20166;-68
2021/10/21 00:56:00;;;;;;;3.45;2.40;;;;;;;15.03;79.32;97138.16;2627766;47;20031;-68
2021/10/21 00:58:31;;;;;;;2.47;2.28;;;;;;;15.05;79.33;97074.00;2626939;54;20041;-68
2021/10/21 01:01:01;;;;;;;3.50;2.50;;;;;;;15.11;79.00;97081.75;2627170;54;20039;-68
2021/10/21 01:03:31;;;;;;;3.33;2.17;;;;;;;15.15;78.49;97123.81;2626232;51;20034;-68
2021/10/21 01:06:04;;;;;;;2.30;2.10;;;;;;;15.14;78.69;97107.03;2627807;54;20014;-68
2021/10/21 01:08:33;;;;;;;4.00;2.28;;;;;;;15.18;78.63;97062.06;2627415;54;20038;-69
2021/10/21 01:11:04;;;;;;;5.10;2.60;;;;;;;15.18;78.25;97059.41;2626985;54;20027;-68
2021/10/21 01:13:34;;;;;;;3.80;2.72;;;;;;;15.18;78.34;97073.50;2621801;54;20027;-69
2021/10/21 01:16:05;;;;;;;4.47;2.20;;;;;;;15.21;78.62;97085.50;2622133;54;20054;-69
2021/10/21 01:18:37;;;;;;;2.35;2.15;;;;;;;15.22;78.71;97060.47;2621769;54;20073;-69
2021/10/21 01:21:10;;;;;;;2.50;1.92;;;;;;;15.22;78.63;97053.28;2621739;54;20082;-69
2021/10/21 01:23:42;;;;;;;1.90;1.80;;;;;;;15.30;77.92;97055.41;2622358;54;20033;-68
2021/10/21 01:26:13;;;;;;;2.75;1.98;;;;;;;15.32;77.60;97040.00;2624770;54;20030;-69
2021/10/21 01:28:44;;;;;;;2.92;2.22;;;;;;;15.36;77.42;97042.91;2625682;39;20705;-68
2021/10/21 01:31:14;;;;;;;2.85;2.00;;;;;;;15.41;77.42;97052.78;2625035;47;20574;-69
2021/10/21 01:33:44;;;;;;;3.58;2.40;;;;;;;15.38;78.06;97046.09;2624235;39;20433;-68
2021/10/21 01:36:16;;;;;;;4.25;2.38;;;;;;;15.24;79.84;97047.72;2623703;54;20035;-67
2021/10/21 01:38:46;;;;;;;3.95;2.65;;;;;;;15.06;81.56;97099.56;2624394;54;20039;-69
2021/10/21 01:41:15;;;;;;;6.85;3.03;;;;;;;14.74;84.95;97137.00;2625431;54;20031;-70
2021/10/21 01:43:46;;;;;;;2.85;1.80;;;;;;;14.41;85.88;97160.19;2626734;39;20227;-70
2021/10/21 01:46:16;;;;;;;4.15;1.80;;;;;;;14.17;86.24;97081.91;2625455;54;20028;-71
2021/10/21 01:48:45;;;;;;;3.05;1.95;;;;;;;14.05;86.92;97108.66;2624923;54;20047;-71
2021/10/21 01:51:18;;;;;;;1.40;1.30;;;;;;;14.00;86.25;97121.91;2623297;47;20041;-71
2021/10/21 01:53:48;;;;;;;2.45;1.10;;;;;;;13.97;85.47;97127.75;2625068;54;20031;-73
2021/10/21 01:56:17;;;;;;;3.00;1.08;;;;;;;13.92;85.46;97130.34;2626763;54;20042;-73
2021/10/21 01:58:47;;;;;;;1.73;0.77;;;;;;;13.88;84.59;97114.94;2626918;54;20030;-73
2021/10/21 02:01:16;;;;;;;2.67;0.80;;;;;;;13.84;83.10;97103.22;2626455;47;20053;-74
2021/10/21 02:03:46;;;;;;;1.48;0.70;;;;;;;13.83;80.81;97114.06;2628625;39;20414;-73
2021/10/21 02:06:19;;;;;;;4.90;1.00;;;;;;;13.85;79.44;97143.84;2626589;54;20042;-72
2021/10/21 02:08:48;;;;;;;1.08;0.90;;;;;;;13.82;77.74;97154.97;2625922;54;20034;-72
2021/10/21 02:11:18;;;;;;;1.40;0.70;;;;;;;13.79;79.08;97150.16;2625913;54;20046;-72
2021/10/21 02:13:48;;;;;;;1.95;0.70;;;;;;;13.71;78.49;97167.34;2626102;54;20022;-72
2021/10/21 02:16:18;;;;;;;1.40;0.88;;;;;;;13.65;77.54;97173.69;2625240;47;20816;-72
2021/10/21 02:18:48;;;;;;;2.53;0.88;;;;;;;13.60;77.59;97166.47;2626332;54;20530;-73
2021/10/21 02:21:20;;;;;;;1.63;0.85;;;;;;;13.60;76.49;97168.34;2626045;54;20037;-72
2021/10/21 02:23:50;;;;;;;1.80;0.57;;;;;;;13.53;75.74;97167.72;2625370;54;20026;-73
2021/10/21 02:26:19;;;;;;;4.68;0.80;;;;;;;13.51;74.70;97146.75;2624711;54;20026;-73
2021/10/21 02:28:50;;;;;;;1.38;0.60;;;;;;;13.47;74.65;97148.31;2624228;54;20034;-74
2021/10/21 02:31:20;;;;;;;2.45;0.90;;;;;;;13.43;72.69;97149.88;2624576;46;20042;-74
2021/10/21 02:33:50;;;;;;;1.52;0.70;;;;;;;13.42;72.63;97136.81;2624921;47;20030;-72
2021/10/21 02:36:22;;;;;;;2.75;0.80;;;;;;;13.38;72.19;97145.28;2626470;47;20027;-72
2021/10/21 02:38:52;;;;;;;1.40;0.60;;;;;;;13.36;71.76;97152.72;2626424;54;20027;-72
2021/10/21 02:41:22;;;;;;;5.03;1.25;;;;;;;13.34;71.38;97138.88;2625965;54;20041;-73
2021/10/21 02:43:51;;;;;;;2.50;0.80;;;;;;;13.34;69.55;97124.81;2625532;54;20041;-73
2021/10/21 02:46:21;;;;;;;5.32;1.25;;;;;;;13.33;69.67;97137.28;2624613;54;20038;-72
2021/10/21 02:48:51;;;;;;;2.75;1.10;;;;;;;13.26;69.61;97134.00;2624672;54;20034;-72
2021/10/21 02:51:23;;;;;;;3.90;0.80;;;;;;;13.25;69.11;97128.97;2624538;54;20030;-72
2021/10/21 02:53:53;;;;;;;1.38;0.60;;;;;;;13.23;68.45;97139.84;2625062;54;20026;-72
2021/10/21 02:56:22;;;;;;;3.53;0.93;;;;;;;13.20;69.17;97150.91;2624458;47;20042;-73
2021/10/21 02:58:52;;;;;;;5.63;0.93;;;;;;;13.15;68.44;97158.84;2624501;54;20023;-72
2021/10/21 03:01:22;;;;;;;3.83;0.70;;;;;;;13.17;68.27;97166.53;2625479;39;20501;-72
2021/10/21 03:03:52;;;;;;;4.93;0.90;;;;;;;13.21;67.11;97151.72;2624603;54;20045;-73
2021/10/21 03:06:24;;;;;;;3.83;1.08;;;;;;;13.17;68.11;97156.72;2624383;54;20042;-73
2021/10/21 03:08:54;;;;;;;1.73;0.65;;;;;;;13.19;67.68;97162.59;2624731;54;20039;-73
2021/10/21 03:11:23;;;;;;;3.25;0.63;;;;;;;13.22;67.12;97148.00;2624636;47;20635;-72
2021/10/21 03:13:53;;;;;;;2.20;0.98;;;;;;;13.24;67.11;97161.88;2624523;54;20033;-72
2021/10/21 03:16:23;;;;;;;3.28;1.00;;;;;;;13.24;67.49;97156.56;2624762;39;20433;-72
2021/10/21 03:18:52;;;;;;;5.78;1.20;;;;;;;13.25;66.25;97180.19;2625004;39;20513;-72
2021/10/21 03:21:25;;;;;;;4.07;1.08;;;;;;;13.24;65.65;97145.94;2624539;39;20429;-72
2021/10/21 03:23:55;;;;;;;5.63;1.10;;;;;;;13.25;65.12;97166.91;2624538;54;20043;-72
2021/10/21 03:26:25;;;;;;;6.15;1.40;;;;;;;13.22;64.21;97163.94;2624504;54;20038;-72
2021/10/21 03:28:55;;;;;;;7.28;1.10;;;;;;;13.21;64.63;97179.06;2626048;39;20485;-72
2021/10/21 03:31:29;;;;;;;8.38;1.20;;;;;;;13.20;64.08;97181.97;2624763;54;20038;-72
2021/10/21 03:33:59;;;;;;;;;;;;;;;13.14;63.80;97173.13;2625759;54;20041;-73
2021/10/21 03:36:31;;;;;;;12.20;2.33;;;;;;;13.14;64.07;97191.69;2625607;54;19946;-72
2021/10/21 03:39:01;;;;;;;4.60;1.25;;;;;;;13.10;63.79;97156.09;2625799;54;20048;-73
2021/10/21 03:41:31;;;;;;;8.52;1.35;;;;;;;13.09;63.30;97165.91;2628153;39;20446;-72
2021/10/21 03:44:01;;;;;;;5.47;1.13;;;;;;;13.11;63.44;97182.41;2625742;54;20607;-72
2021/10/21 03:46:31;;;;;;;6.15;1.35;;;;;;;13.08;63.38;97176.78;2625458;39;20488;-72
2021/10/21 03:49:00;;;;;;;9.65;1.33;;;;;;;13.07;63.44;97183.16;2625345;54;20027;-72
2021/10/21 03:51:32;;;;;;;8.57;1.38;;;;;;;13.04;63.08;97197.69;2624149;47;20026;-72
2021/10/21 03:54:02;;;;;;;6.82;1.40;;;;;;;13.00;63.62;97185.19;2625422;54;20537;-73
2021/10/21 03:56:32;;;;;;;6.82;1.73;;;;;;;12.99;63.24;97197.66;2624277;47;20027;-73
2021/10/21 03:59:02;;;;;;;6.95;1.45;;;;;;;13.00;63.04;97193.13;2625119;54;20565;-72
2021/10/21 04:01:31;;;;;;;7.07;1.52;;;;;;;13.01;62.31;97176.16;2623198;54;20034;-72
2021/10/21 04:04:01;;;;;;;8.45;1.50;;;;;;;13.01;62.07;97192.09;2626730;39;20470;-73
2021/10/21 04:06:34;;;;;;;7.43;2.17;;;;;;;13.00;62.46;97188.63;2625162;47;20041;-72
2021/10/21 04:09:03;;;;;;;8.02;1.85;;;;;;;13.03;62.43;97182.03;2623026;47;20035;-72
2021/10/21 04:11:33;;;;;;;6.07;1.13;;;;;;;13.03;61.84;97193.44;2623551;54;20041;-71
2021/10/21 04:14:03;;;;;;;6.90;1.58;;;;;;;13.03;62.50;97192.66;2624790;54;20037;-71
2021/10/21 04:16:32;;;;;;;7.35;1.70;;;;;;;13.02;62.17;97209.59;2625035;54;20022;-73
2021/10/21 04:19:02;;;;;;;5.22;1.50;;;;;;;13.01;61.46;97208.78;2625785;54;20030;-73
2021/10/21 04:21:34;;;;;;;6.47;1.80;;;;;;;13.02;61.68;97191.84;2625851;54;20608;-74
2021/10/21 04:24:04;;;;;;;6.72;1.58;;;;;;;13.02;61.23;97202.47;2626535;39;20434;-74
2021/10/21 04:26:33;;;;;;;6.50;1.50;;;;;;;13.00;61.92;97196.59;2624199;47;20045;-71
2021/10/21 04:29:03;;;;;;;10.00;1.50;;;;;;;13.01;61.80;97222.06;2625898;54;20049;-75
2021/10/21 04:31:33;;;;;;;8.25;1.63;;;;;;;12.94;63.21;97215.31;2625718;54;20031;-74
2021/10/21 04:34:03;;;;;;;7.45;1.73;;;;;;;12.86;63.77;97221.88;2626062;54;20042;-73
2021/10/21 04:36:35;;;;;;;11.27;2.55;;;;;;;12.79;64.52;97210.66;2626192;54;20058;-74
2021/10/21 04:39:09;;;;;;;9.00;1.90;;;;;;;12.74;64.67;97243.19;2625049;47;20035;-71
2021/10/21 04:41:39;;;;;;;9.90;2.42;;;;;;;12.67;65.12;97249.72;2625248;54;20030;-72
2021/10/21 04:44:09;;;;;;;8.60;1.77;;;;;;;12.63;65.20;97238.78;2624218;54;20038;-72
2021/10/21 04:46:38;;;;;;;15.82;2.55;;;;;;;12.63;64.80;97258.16;2624048;54;20150;-72
2021/10/21 04:49:08;;;;;;;8.85;1.85;;;;;;;12.63;64.97;97262.66;2624252;54;20027;-72
2021/10/21 04:51:40;;;;;;;7.88;1.83;;;;;;;12.66;64.45;97251.56;2623990;54;20038;-71
2021/10/21 04:54:10;;;;;;;9.00;2.00;;;;;;;12.68;64.34;97251.31;2623743;54;20031;-72
2021/10/21 04:56:41;;;;;;;8.02;2.10;;;;;;;12.70;63.80;97251.91;2623770;54;20102;-71
2021/10/21 04:59:10;;;;;;;10.80;2.08;;;;;;;12.73;63.18;97273.41;2624010;54;20026;-74
2021/10/21 05:01:40;;;;;;;9.15;1.65;;;;;;;12.76;62.88;97278.22;2624494;54;20033;-73
2021/10/21 05:04:11;;;;;;;8.68;1.73;;;;;;;12.80;61.95;97278.53;2624294;54;20056;-74
2021/10/21 05:06:44;;;;;;;11.60;2.03;;;;;;;12.79;61.93;97290.19;2623935;54;20031;-74
2021/10/21 05:09:13;;;;;;;8.02;1.55;;;;;;;12.80;62.17;97268.72;2623878;54;20034;-74
2021/10/21 05:11:43;;;;;;;6.95;2.20;;;;;;;12.80;61.22;97260.78;2624199;54;20042;-72
2021/10/21 05:14:13;;;;;;;9.88;2.15;;;;;;;12.81;62.04;97288.09;2624674;54;20026;-71
2021/10/21 05:16:42;;;;;;;9.07;1.88;;;;;;;12.80;60.83;97276.69;2617627;54;20050;-71
2021/10/21 05:19:12;;;;;;;7.40;1.63;;;;;;;12.81;60.33;97272.19;2618654;54;20015;-71
2021/10/21 05:21:44;;;;;;;4.57;1.40;;;;;;;12.80;60.35;97279.34;2618166;47;20030;-70
2021/10/21 05:24:14;;;;;;;5.90;1.70;;;;;;;12.78;60.34;97265.53;2618581;54;20564;-71
2021/10/21 05:26:43;;;;;;;6.38;1.60;;;;;;;12.78;60.29;97294.69;2618165;47;20034;-71
2021/10/21 05:29:13;;;;;;;12.27;1.75;;;;;;;12.73;60.55;97284.00;2618976;39;20410;-71
2021/10/21 05:31:43;;;;;;;9.55;1.80;;;;;;;12.72;60.94;97273.66;2618027;47;20037;-70
2021/10/21 05:34:12;;;;;;;9.77;2.08;;;;;;;12.71;60.92;97275.50;2618713;54;20038;-70
2021/10/21 05:36:45;;;;;;;6.13;1.83;;;;;;;12.65;61.73;97271.16;2618934;54;20042;-70
2021/10/21 05:39:14;;;;;;;6.93;1.30;;;;;;;12.57;61.43;97301.56;2619030;54;20038;-70
2021/10/21 05:41:44;;;;;;;3.38;1.13;;;;;;;12.53;61.39;97318.97;2618955;54;20039;-70
2021/10/21 05:44:14;;;;;;;4.97;1.45;;;;;;;12.54;61.27;97307.31;2618034;47;20030;-71
2021/10/21 05:46:45;;;;;;;11.32;1.52;;;;;;;12.55;61.95;97313.44;2618776;39;20421;-71
2021/10/21 05:49:15;;;;;;;8.15;1.70;;;;;;;12.47;63.16;97297.94;2618147;47;20026;-71
2021/10/21 05:51:48;;;;;;;5.00;1.30;;;;;;;12.35;63.32;97324.50;2618908;54;20702;-73
2021/10/21 05:54:18;;;;;;;7.05;1.98;;;;;;;12.22;64.03;97336.22;2619311;54;20078;-72
2021/10/21 05:56:48;;;;;;;5.70;1.30;;;;;;;12.22;64.23;97340.72;2619181;54;20019;-70
2021/10/21 05:59:17;;;;;;;5.55;1.30;;;;;;;12.17;64.40;97367.13;2619233;54;20031;-70
2021/10/21 06:01:47;;;;;;;4.07;1.38;;;;;;;12.10;65.00;97361.94;2619129;54;20550;-70
2021/10/21 06:04:17;;;;;;;5.40;1.77;;;;;;;12.06;65.22;97366.13;2617819;54;20035;-72
2021/10/21 06:06:49;;;;;;;4.22;1.05;;;;;;;12.01;65.25;97371.31;2619193;54;20038;-70
2021/10/21 06:09:23;;;;;;;6.25;1.85;;;;;;;11.97;65.71;97370.19;2618565;47;20150;-70
2021/10/21 06:11:53;;;;;;;1.92;0.90;;;;;;;11.89;66.16;97400.50;2619102;54;20038;-73
2021/10/21 06:14:24;;;;;;;9.90;1.17;;;;;;;11.79;66.57;97413.47;2619173;54;20562;-70
2021/10/21 06:16:53;;;;;;;3.40;1.15;;;;;;;11.65;68.39;97416.41;2618990;54;20034;-71
2021/10/21 06:19:23;;;;;;;5.70;1.35;;;;;;;11.50;70.04;97404.69;2619357;54;20118;-72
2021/10/21 06:22:03;;;;;;;1.67;0.73;;;;;;;11.34;71.13;97420.22;2619015;54;20057;-72
2021/10/21 06:24:32;;;;;;;5.35;0.90;;;;;;;11.21;72.00;97425.75;2619290;54;20027;-70
2021/10/21 06:27:02;;;;;;;1.33;0.68;;;;;;;11.20;71.97;97449.78;2619575;54;20027;-71
2021/10/21 06:29:32;;;;;;;2.88;0.65;;;;;;;11.12;72.13;97462.31;2619213;54;20039;-70
2021/10/21 06:32:04;;;;;;;6.05;1.02;;;;;;;11.06;72.73;97468.53;2618622;54;20042;-69
2021/10/21 06:34:33;;;;;;;3.10;0.45;;;;;;;11.01;73.07;97472.88;2618930;47;20037;-71
2021/10/21 06:37:09;;;;;;;3.70;1.45;;;;;;;11.00;73.10;97495.06;2619278;47;20054;-71
2021/10/21 06:39:39;;;;;;;3.42;0.70;;;;;;;10.95;73.26;97494.94;2619399;54;20031;-70
2021/10/21 06:42:09;;;;;;;1.48;0.75;;;;;;;10.85;75.05;97519.28;2618406;47;20030;-70
2021/10/21 06:44:39;;;;;;;3.33;0.60;;;;;;;10.77;75.60;97536.25;2619146;54;20091;-70
2021/10/21 06:47:08;;;;;;;6.28;1.08;;;;;;;10.69;75.89;97560.34;2619216;54;20579;-70
2021/10/21 06:49:38;;;;;;;3.35;0.60;;;;;;;10.67;75.96;97565.06;2619154;54;20030;-70
2021/10/21 06:52:10;;;;;;;2.35;0.60;;;;;;;10.69;75.78;97591.28;2619139;54;20027;-70
2021/10/21 06:54:40;;;;;;;2.83;0.63;;;;;;;10.72;75.48;97609.34;2617843;54;20159;-70
2021/10/21 06:57:09;;;;;;;2.35;0.60;;;;;;;10.74;75.31;97604.66;2619391;54;20045;-70
2021/10/21 06:59:39;;;;;;;2.38;0.70;;;;;;;10.73;75.30;97608.28;2618969;47;20037;-70
2021/10/21 07:02:09;;;;;;;1.73;0.50;;;;;;;10.77;74.81;97641.19;2618765;47;20023;-70
2021/10/21 07:04:39;;;;;;;4.72;0.68;;;;;;;10.79;74.95;97660.28;2619325;39;20485;-70
2021/10/21 07:07:31;;;;;;;1.45;0.60;;;;;;;10.81;74.98;97680.16;2619591;54;20038;-70
2021/10/21 07:10:05;;;;;;;1.00;0.50;;;;;;;10.81;75.62;97666.16;2620839;39;20500;-70
2021/10/21 07:12:35;;;;;;;1.17;0.52;;;;;;;10.84;75.36;97721.22;2620580;54;20046;-71
2021/10/21 07:15:06;;;;;;;3.13;0.68;;;;;;;10.89;74.95;97726.66;2619554;47;20038;-70
2021/10/21 07:17:36;;;;;;;1.65;0.60;;;;;;;10.89;74.75;97734.59;2619409;54;20114;-70
2021/10/21 07:20:07;;;;;;;0.93;0.68;;;;;;;10.89;74.98;97730.09;2619371;54;20031;-70
2021/10/21 07:22:39;;;;;;;0.82;0.52;;;;;;;10.91;74.92;97749.22;2620029;39;20410;-70
2021/10/21 07:25:10;;;;;;;1.88;0.57;;;;;;;10.96;74.20;97766.25;2619480;54;20086;-70
2021/10/21 07:27:42;;;;;;;1.98;0.47;;;;;;;11.04;73.63;97780.00;2619202;54;20037;-70
2021/10/21 07:30:13;;;;;;;5.18;0.60;;;;;;;11.03;74.58;97815.41;2619185;54;20039;-71
2021/10/21 07:32:43;;;;;;;3.72;0.82;;;;;;;10.97;74.55;97815.47;2619492;54;20049;-70
2021/10/21 07:35:13;;;;;;;1.55;0.63;;;;;;;10.94;74.39;97803.50;2618564;47;20022;-70
2021/10/21 07:37:45;;;;;;;2.83;0.63;;;;;;;10.92;73.52;97826.69;2619400;54;20061;-70
2021/10/21 07:40:15;;;;;;;1.58;0.50;;;;;;;10.95;73.02;97834.22;2618976;54;20105;-70
2021/10/21 07:42:45;;;;;;;0.50;0.50;;;;;;;11.02;72.73;97836.75;2619189;54;20043;-70
2021/10/21 07:45:15;;;;;;;3.03;0.70;;;;;;;11.14;71.70;97867.59;2618645;54;20027;-70
2021/10/21 07:47:44;;;;;;;1.17;0.40;;;;;;;11.12;71.28;97882.84;2618616;54;20022;-70
2021/10/21 07:50:16;;;;;;;3.90;0.60;;;;;;;11.15;71.79;97892.22;2619373;31;20451;-70
2021/10/21 07:52:48;;;;;;;2.45;0.70;;;;;;;11.21;71.31;97914.31;2618410;54;20049;-69
2021/10/21 07:55:20;;;;;;;0.85;0.50;;;;;;;11.20;70.96;97918.81;2618646;54;20034;-70
2021/10/21 07:57:49;;;;;;;0.68;0.50;;;;;;;11.11;72.25;97950.03;2619305;39;20437;-69
2021/10/21 08:00:19;;;;;;;1.98;0.68;;;;;;;10.98;73.66;97951.94;2618425;47;20070;-70
2021/10/21 08:02:48;;;;;;;2.00;0.50;;;;;;;10.90;74.66;97969.72;2618505;54;20038;-69
2021/10/21 08:05:18;;;;;;;1.27;0.60;;;;;;;10.82;75.02;97979.75;2619188;54;20029;-70
